createdAt,value
2022-12-25T00:02:05.288Z,6.01
2022-12-25T00:04:33.370Z,5.99
2022-12-25T00:07:01.467Z,5.98
2022-12-25T00:09:30.015Z,5.95
2022-12-25T00:11:58.092Z,5.94
2022-12-25T00:14:26.183Z,5.93
2022-12-25T00:16:54.265Z,5.92
2022-12-25T00:19:23.750Z,5.92
2022-12-25T00:21:51.811Z,5.92
2022-12-25T00:24:19.883Z,5.91
2022-12-25T00:26:47.977Z,5.90
2022-12-25T00:29:16.061Z,5.90
2022-12-25T00:31:44.355Z,5.90
2022-12-25T00:34:12.485Z,5.90
2022-12-25T00:36:42.381Z,5.93
2022-12-25T00:39:10.635Z,5.93
2022-12-25T00:41:56.415Z,5.94
2022-12-25T00:44:24.507Z,5.95
2022-12-25T00:46:52.651Z,5.96
2022-12-25T00:49:22.204Z,5.97
2022-12-25T00:51:51.648Z,5.98
2022-12-25T00:54:20.494Z,6.00
2022-12-25T00:56:48.699Z,6.00
2022-12-25T00:59:16.829Z,6.01
2022-12-25T01:01:45.221Z,6.04
2022-12-25T01:04:14.136Z,6.05
2022-12-25T01:06:42.262Z,6.07
2022-12-25T01:09:25.593Z,6.09
2022-12-25T01:11:53.916Z,6.13
2022-12-25T01:14:22.027Z,6.14
2022-12-25T01:16:50.204Z,6.17
2022-12-25T01:19:18.266Z,6.19
2022-12-25T01:21:46.315Z,6.20
2022-12-25T01:24:15.845Z,6.22
2022-12-25T01:26:43.893Z,6.23
2022-12-25T01:29:11.958Z,6.22
2022-12-25T01:31:40.015Z,6.17
2022-12-25T01:34:08.104Z,6.12
2022-12-25T01:36:36.164Z,6.07
2022-12-25T01:39:05.213Z,6.04
2022-12-25T01:41:34.697Z,6.03
2022-12-25T01:44:05.960Z,6.04
2022-12-25T01:46:34.721Z,6.04
2022-12-25T01:49:06.503Z,6.06
2022-12-25T01:51:37.143Z,6.07
2022-12-25T01:54:07.926Z,6.09
2022-12-25T01:56:38.923Z,6.12
2022-12-25T01:59:08.069Z,6.12
2022-12-25T02:01:36.329Z,6.15
2022-12-25T02:04:08.105Z,6.16
2022-12-25T02:06:36.327Z,6.17
2022-12-25T02:09:04.443Z,6.18
2022-12-25T02:11:49.871Z,6.19
2022-12-25T02:14:19.430Z,6.17
2022-12-25T02:16:57.625Z,6.17
2022-12-25T02:19:43.976Z,6.16
2022-12-25T02:22:19.535Z,6.13
2022-12-25T02:24:59.484Z,6.11
2022-12-25T02:27:48.799Z,6.10
2022-12-25T02:30:16.925Z,6.09
2022-12-25T02:32:48.152Z,6.10
2022-12-25T02:35:18.135Z,6.10
2022-12-25T02:37:52.298Z,6.12
2022-12-25T02:40:22.431Z,6.13
2022-12-25T02:43:13.201Z,6.16
2022-12-25T02:46:02.817Z,6.16
2022-12-25T02:48:50.782Z,6.16
2022-12-25T02:51:38.079Z,6.14
2022-12-25T02:54:36.137Z,6.13
2022-12-25T02:57:25.381Z,6.12
2022-12-25T03:00:15.128Z,6.14
2022-12-25T03:03:06.657Z,6.13
2022-12-25T03:05:54.920Z,6.16
2022-12-25T03:08:25.786Z,6.17
2022-12-25T03:11:17.052Z,6.18
2022-12-25T03:13:48.156Z,6.19
2022-12-25T03:16:35.107Z,6.19
2022-12-25T03:19:24.044Z,6.19
2022-12-25T03:22:10.257Z,6.20
2022-12-25T03:24:55.881Z,6.20
2022-12-25T03:27:24.205Z,6.19
2022-12-25T03:30:09.851Z,6.19
2022-12-25T03:32:43.186Z,6.20
2022-12-25T03:35:24.067Z,6.19
2022-12-25T03:38:14.879Z,6.17
2022-12-25T03:41:10.969Z,6.16
2022-12-25T03:44:00.262Z,6.13
2022-12-25T03:46:50.017Z,6.11
2022-12-25T03:49:42.479Z,6.07
2022-12-25T03:52:30.505Z,6.05
2022-12-25T03:55:18.641Z,6.03
2022-12-25T03:58:04.883Z,6.00
2022-12-25T04:00:52.838Z,5.98
2022-12-25T04:03:38.416Z,5.97
2022-12-25T04:06:22.125Z,5.94
2022-12-25T04:09:07.563Z,5.90
2022-12-25T04:11:58.767Z,5.87
2022-12-25T04:14:47.486Z,5.85
2022-12-25T04:17:33.129Z,5.81
2022-12-25T04:20:18.581Z,5.80
2022-12-25T04:23:05.561Z,5.81
2022-12-25T04:25:50.964Z,5.78
2022-12-25T04:28:36.666Z,5.78
2022-12-25T04:31:22.603Z,5.79
2022-12-25T04:34:07.964Z,5.82
2022-12-25T04:36:36.053Z,5.83
2022-12-25T04:39:05.555Z,5.85
2022-12-25T04:41:33.627Z,5.86
2022-12-25T04:44:01.778Z,5.88
2022-12-25T04:46:29.920Z,5.92
2022-12-25T04:48:58.094Z,5.94
2022-12-25T04:51:27.019Z,5.95
2022-12-25T04:53:55.190Z,5.98
2022-12-25T04:56:24.745Z,5.99
2022-12-25T04:58:52.838Z,6.01
2022-12-25T05:01:20.967Z,6.00
2022-12-25T05:03:49.208Z,6.00
2022-12-25T05:06:17.385Z,6.01
2022-12-25T05:08:45.468Z,6.02
2022-12-25T05:11:15.368Z,6.02
2022-12-25T05:13:45.241Z,6.04
2022-12-25T05:16:15.931Z,6.03
2022-12-25T05:18:44.265Z,6.03
2022-12-25T05:21:12.817Z,6.04
2022-12-25T05:23:48.402Z,6.06
2022-12-25T05:26:17.951Z,6.07
2022-12-25T05:28:47.580Z,6.05
2022-12-25T05:31:16.093Z,6.04
2022-12-25T05:33:44.296Z,6.02
2022-12-25T05:36:13.804Z,6.01
2022-12-25T05:38:41.880Z,5.98
2022-12-25T05:41:09.992Z,5.98
2022-12-25T05:43:38.104Z,5.95
2022-12-25T05:46:08.877Z,5.92
2022-12-25T05:48:38.319Z,5.90
2022-12-25T05:51:07.386Z,5.86
2022-12-25T05:53:35.890Z,5.83
2022-12-25T05:56:04.922Z,5.81
2022-12-25T05:58:34.338Z,5.78
2022-12-25T06:01:02.540Z,5.77
2022-12-25T06:03:32.003Z,5.75
2022-12-25T06:06:00.149Z,5.73
2022-12-25T06:08:28.181Z,5.70
2022-12-25T06:10:56.292Z,5.69
2022-12-25T06:13:24.365Z,5.68
2022-12-25T06:15:52.449Z,5.68
2022-12-25T06:18:20.538Z,5.70
2022-12-25T06:20:50.078Z,5.71
2022-12-25T06:23:18.162Z,5.72
2022-12-25T06:25:46.298Z,5.71
2022-12-25T06:28:14.329Z,5.71
2022-12-25T06:30:42.408Z,5.71
2022-12-25T06:33:10.463Z,5.72
2022-12-25T06:35:40.148Z,5.73
2022-12-25T06:38:09.602Z,5.72
2022-12-25T06:40:37.684Z,5.72
2022-12-25T06:43:05.868Z,5.72
2022-12-25T06:45:36.632Z,5.71
2022-12-25T06:48:04.983Z,5.70
2022-12-25T06:50:33.084Z,5.70
2022-12-25T06:53:01.141Z,5.69
2022-12-25T06:55:30.592Z,5.69
2022-12-25T06:57:58.852Z,5.68
2022-12-25T07:00:26.925Z,5.67
2022-12-25T07:02:55.110Z,5.68
2022-12-25T07:05:23.205Z,5.68
2022-12-25T07:07:51.328Z,5.69
2022-12-25T07:10:19.374Z,5.69
2022-12-25T07:12:48.830Z,5.68
2022-12-25T07:15:16.940Z,5.67
2022-12-25T07:17:44.970Z,5.66
2022-12-25T07:20:13.141Z,5.66
2022-12-25T07:22:41.215Z,5.66
2022-12-25T07:25:09.645Z,5.64
2022-12-25T07:27:37.701Z,5.62
2022-12-25T07:30:08.834Z,5.60
2022-12-25T07:32:36.939Z,5.59
2022-12-25T07:35:05.527Z,5.60
2022-12-25T07:37:33.593Z,5.62
2022-12-25T07:40:01.744Z,5.62
2022-12-25T07:42:29.785Z,5.61
2022-12-25T07:44:58.231Z,5.61
2022-12-25T07:47:27.683Z,5.64
2022-12-25T07:49:55.776Z,5.64
2022-12-25T07:52:23.870Z,5.65
2022-12-25T07:54:54.596Z,5.64
2022-12-25T07:57:22.671Z,5.63
2022-12-25T07:59:50.776Z,5.61
2022-12-25T08:02:19.138Z,5.61
2022-12-25T08:04:48.729Z,5.59
2022-12-25T08:07:16.761Z,5.61
2022-12-25T08:09:44.835Z,5.61
2022-12-25T08:12:12.913Z,5.63
2022-12-25T08:14:40.983Z,5.63
2022-12-25T08:17:09.365Z,5.64
2022-12-25T08:19:37.547Z,5.65
2022-12-25T08:22:07.282Z,5.67
2022-12-25T08:24:35.337Z,5.67
2022-12-25T08:27:03.942Z,5.68
2022-12-25T08:29:35.005Z,5.69
2022-12-25T08:32:03.437Z,5.71
2022-12-25T08:34:31.497Z,5.72
2022-12-25T08:36:59.566Z,5.74
2022-12-25T08:39:29.071Z,5.76
2022-12-25T08:41:57.173Z,5.77
2022-12-25T08:44:25.645Z,5.80
2022-12-25T08:46:54.091Z,5.85
2022-12-25T08:49:23.019Z,5.89
2022-12-25T08:51:51.300Z,5.94
2022-12-25T08:54:19.360Z,5.97
2022-12-25T08:56:48.951Z,6.00
2022-12-25T08:59:17.067Z,6.02
2022-12-25T09:01:45.298Z,6.06
2022-12-25T09:04:13.428Z,6.08
2022-12-25T09:06:41.503Z,6.11
2022-12-25T09:09:09.578Z,6.16
2022-12-25T09:11:37.612Z,6.18
2022-12-25T09:14:07.196Z,6.20
2022-12-25T09:16:35.363Z,6.24
2022-12-25T09:19:03.532Z,6.27
2022-12-25T09:21:31.740Z,6.31
2022-12-25T09:23:59.851Z,6.32
2022-12-25T09:26:28.060Z,6.34
2022-12-25T09:28:56.122Z,6.35
2022-12-25T09:31:25.724Z,6.39
2022-12-25T09:33:57.878Z,6.41
2022-12-25T09:36:26.572Z,6.42
2022-12-25T09:38:54.718Z,6.44
2022-12-25T09:41:28.903Z,6.46
2022-12-25T09:44:02.460Z,6.47
2022-12-25T09:46:38.424Z,6.47
2022-12-25T09:49:13.057Z,6.49
2022-12-25T09:51:41.783Z,6.50
2022-12-25T09:54:15.452Z,6.51
2022-12-25T09:56:43.553Z,6.55
2022-12-25T09:59:18.577Z,6.57
2022-12-25T10:01:58.071Z,6.60
2022-12-25T10:04:40.934Z,6.64
2022-12-25T10:07:17.816Z,6.68
2022-12-25T10:09:54.648Z,6.71
2022-12-25T10:12:39.741Z,6.74
2022-12-25T10:15:20.004Z,6.77
2022-12-25T10:18:05.811Z,6.79
2022-12-25T10:20:43.827Z,6.79
2022-12-25T10:23:16.591Z,6.81
2022-12-25T10:25:46.085Z,6.82
2022-12-25T10:28:15.953Z,6.83
2022-12-25T10:30:45.780Z,6.85
2022-12-25T10:33:17.437Z,6.87
2022-12-25T10:35:46.094Z,6.88
2022-12-25T10:38:16.282Z,6.92
2022-12-25T10:40:57.574Z,6.94
2022-12-25T10:43:29.760Z,6.96
2022-12-25T10:45:57.876Z,6.99
2022-12-25T10:48:29.909Z,6.99
2022-12-25T10:50:58.152Z,7.00
2022-12-25T10:53:27.942Z,7.01
2022-12-25T10:55:58.345Z,7.01
2022-12-25T10:58:26.889Z,7.01
2022-12-25T11:00:56.556Z,7.00
2022-12-25T11:03:26.409Z,7.00
2022-12-25T11:05:56.206Z,7.00
2022-12-25T11:08:26.194Z,7.02
2022-12-25T11:10:57.522Z,7.01
2022-12-25T11:13:27.664Z,7.01
2022-12-25T11:16:10.666Z,7.04
2022-12-25T11:18:46.534Z,7.07
2022-12-25T11:21:20.623Z,7.07
2022-12-25T11:23:50.017Z,7.09
2022-12-25T11:26:19.186Z,7.10
2022-12-25T11:28:48.004Z,7.10
2022-12-25T11:31:19.316Z,7.11
2022-12-25T11:33:51.564Z,7.11
2022-12-25T11:36:27.723Z,7.15
2022-12-25T11:38:55.918Z,7.16
2022-12-25T11:41:28.680Z,7.16
2022-12-25T11:44:00.000Z,7.17
2022-12-25T11:46:31.140Z,7.20
2022-12-25T11:49:02.458Z,7.23
2022-12-25T11:51:34.603Z,7.26
2022-12-25T11:54:08.431Z,7.30
2022-12-25T11:56:38.504Z,7.33
2022-12-25T11:59:16.379Z,7.37
2022-12-25T12:01:48.315Z,7.41
2022-12-25T12:04:24.312Z,7.43
2022-12-25T12:07:01.224Z,7.47
2022-12-25T12:09:38.483Z,7.48
2022-12-25T12:12:12.183Z,7.50
2022-12-25T12:14:48.789Z,7.51
2022-12-25T12:17:18.813Z,7.53
2022-12-25T12:19:46.977Z,7.53
2022-12-25T12:22:21.276Z,7.54
2022-12-25T12:24:54.296Z,7.55
2022-12-25T12:27:26.354Z,7.54
2022-12-25T12:29:56.903Z,7.56
2022-12-25T12:32:36.874Z,7.57
2022-12-25T12:35:18.314Z,7.57
2022-12-25T12:37:50.768Z,7.58
2022-12-25T12:40:25.762Z,7.56
2022-12-25T12:42:54.012Z,7.55
2022-12-25T12:45:26.454Z,7.54
2022-12-25T12:47:54.676Z,7.54
2022-12-25T12:50:33.087Z,7.54
2022-12-25T12:53:24.938Z,7.52
2022-12-25T12:55:53.701Z,7.53
2022-12-25T12:58:33.113Z,7.52
2022-12-25T13:01:09.861Z,7.53
2022-12-25T13:03:47.287Z,7.52
2022-12-25T13:06:18.563Z,7.51
2022-12-25T13:08:57.385Z,7.51
2022-12-25T13:11:27.108Z,7.52
2022-12-25T13:13:58.072Z,7.52
2022-12-25T13:16:29.275Z,7.54
2022-12-25T13:18:57.902Z,7.55
2022-12-25T13:21:27.214Z,7.58
2022-12-25T13:24:01.228Z,7.59
2022-12-25T13:26:29.982Z,7.61
2022-12-25T13:28:58.250Z,7.64
2022-12-25T13:31:27.779Z,7.65
2022-12-25T13:33:59.247Z,7.66
2022-12-25T13:36:28.372Z,7.67
2022-12-25T13:38:58.461Z,7.70
2022-12-25T13:41:54.811Z,7.71
2022-12-25T13:44:24.893Z,7.75
2022-12-25T13:46:53.133Z,7.76
2022-12-25T13:49:23.487Z,7.77
2022-12-25T13:51:52.218Z,7.80
2022-12-25T13:54:20.911Z,7.80
2022-12-25T13:56:52.863Z,7.81
2022-12-25T13:59:22.952Z,7.82
2022-12-25T14:01:52.400Z,7.81
2022-12-25T14:04:22.910Z,7.80
2022-12-25T14:06:52.094Z,7.78
2022-12-25T14:09:20.617Z,7.77
2022-12-25T14:11:53.342Z,7.76
2022-12-25T14:14:24.416Z,7.75
2022-12-25T14:16:56.010Z,7.75
2022-12-25T14:19:30.068Z,7.74
2022-12-25T14:22:02.324Z,7.74
2022-12-25T14:24:33.342Z,7.72
2022-12-25T14:27:05.013Z,7.68
2022-12-25T14:29:38.107Z,7.67
2022-12-25T14:32:08.645Z,7.66
2022-12-25T14:34:36.903Z,7.64
2022-12-25T14:37:05.371Z,7.63
2022-12-25T14:39:36.143Z,7.62
2022-12-25T14:42:14.708Z,7.58
2022-12-25T14:44:42.922Z,7.55
2022-12-25T14:47:18.532Z,7.51
2022-12-25T14:49:47.180Z,7.48
2022-12-25T14:52:20.275Z,7.45
2022-12-25T14:54:50.923Z,7.44
2022-12-25T14:57:26.066Z,7.41
2022-12-25T14:59:59.358Z,7.37
2022-12-25T15:02:27.861Z,7.34
2022-12-25T15:04:56.120Z,7.30
2022-12-25T15:07:29.011Z,7.28
2022-12-25T15:10:28.688Z,7.25
2022-12-25T15:12:46.947Z,7.22
2022-12-25T15:15:15.215Z,7.19
2022-12-25T15:17:43.506Z,7.17
2022-12-25T15:20:13.597Z,7.15
2022-12-25T15:23:10.334Z,7.14
2022-12-25T15:25:31.660Z,7.10
2022-12-25T15:28:01.697Z,7.07
2022-12-25T15:30:30.434Z,7.06
2022-12-25T15:32:58.619Z,7.05
2022-12-25T15:35:26.888Z,7.03
2022-12-25T15:37:55.130Z,7.02
2022-12-25T15:40:23.384Z,7.01
2022-12-25T15:42:51.797Z,6.99
2022-12-25T15:45:22.759Z,7.00
2022-12-25T15:47:51.088Z,7.00
2022-12-25T15:50:20.524Z,7.00
2022-12-25T15:52:49.041Z,6.99
2022-12-25T15:55:17.768Z,6.98
2022-12-25T15:57:48.476Z,6.97
2022-12-25T16:00:19.771Z,6.97
2022-12-25T16:02:49.440Z,6.96
2022-12-25T16:05:18.023Z,6.95
2022-12-25T16:07:46.271Z,6.94
2022-12-25T16:10:17.100Z,6.93
2022-12-25T16:12:45.438Z,6.90
2022-12-25T16:15:15.087Z,6.89
2022-12-25T16:17:43.436Z,6.87
2022-12-25T16:20:13.733Z,6.87
2022-12-25T16:22:42.015Z,6.86
2022-12-25T16:25:14.700Z,6.84
2022-12-25T16:27:43.255Z,6.82
2022-12-25T16:30:13.252Z,6.82
2022-12-25T16:32:42.599Z,6.81
2022-12-25T16:35:13.163Z,6.81
2022-12-25T16:37:41.449Z,6.82
2022-12-25T16:40:10.666Z,6.79
2022-12-25T16:42:39.109Z,6.77
2022-12-25T16:45:08.296Z,6.76
2022-12-25T16:47:36.517Z,6.76
2022-12-25T16:50:06.393Z,6.76
2022-12-25T16:52:36.713Z,6.77
2022-12-25T16:55:05.710Z,6.77
2022-12-25T16:57:33.983Z,6.76
2022-12-25T17:00:02.171Z,6.76
2022-12-25T17:02:30.507Z,6.76
2022-12-25T17:05:00.470Z,6.77
2022-12-25T17:07:28.703Z,6.77
2022-12-25T17:09:58.334Z,6.77
2022-12-25T17:12:26.670Z,6.77
2022-12-25T17:14:54.883Z,6.79
2022-12-25T17:17:23.131Z,6.80
2022-12-25T17:19:51.278Z,6.80
2022-12-25T17:22:19.636Z,6.81
2022-12-25T17:24:47.835Z,6.81
2022-12-25T17:27:17.458Z,6.79
2022-12-25T17:29:47.299Z,6.79
2022-12-25T17:32:15.623Z,6.78
2022-12-25T17:34:43.870Z,6.78
2022-12-25T17:37:12.058Z,6.77
2022-12-25T17:39:40.364Z,6.78
2022-12-25T17:42:08.602Z,6.78
2022-12-25T17:44:38.155Z,6.77
2022-12-25T17:47:06.455Z,6.78
2022-12-25T17:49:35.922Z,6.78
2022-12-25T17:52:04.097Z,6.79
2022-12-25T17:54:32.368Z,6.81
2022-12-25T17:57:00.542Z,6.82
2022-12-25T17:59:29.703Z,6.82
2022-12-25T18:01:59.372Z,6.82
2022-12-25T18:04:27.693Z,6.84
2022-12-25T18:06:55.839Z,6.83
2022-12-25T18:09:23.971Z,6.82
2022-12-25T18:11:52.280Z,6.81
2022-12-25T18:14:20.475Z,6.79
2022-12-25T18:16:48.799Z,6.80
2022-12-25T18:19:19.717Z,6.80
2022-12-25T18:21:47.939Z,6.78
2022-12-25T18:24:16.121Z,6.78
2022-12-25T18:26:45.622Z,6.78
2022-12-25T18:29:13.790Z,6.79
2022-12-25T18:31:42.032Z,6.77
2022-12-25T18:34:10.251Z,6.77
2022-12-25T18:36:39.935Z,6.78
2022-12-25T18:39:08.223Z,6.77
2022-12-25T18:41:57.154Z,6.76
2022-12-25T18:44:25.348Z,6.76
2022-12-25T18:46:53.901Z,6.76
2022-12-25T18:49:22.089Z,6.74
2022-12-25T18:51:51.639Z,6.72
2022-12-25T18:54:20.042Z,6.71
2022-12-25T18:56:53.379Z,6.69
2022-12-25T18:59:21.854Z,6.68
2022-12-25T19:01:50.215Z,6.67
2022-12-25T19:04:18.525Z,6.65
2022-12-25T19:06:47.996Z,6.62
2022-12-25T19:09:17.618Z,6.61
2022-12-25T19:11:46.941Z,6.61
2022-12-25T19:14:15.916Z,6.59
2022-12-25T19:16:44.382Z,6.61
2022-12-25T19:19:13.146Z,6.61
2022-12-25T19:21:41.474Z,6.61
2022-12-25T19:24:09.783Z,6.61
2022-12-25T19:26:39.433Z,6.61
2022-12-25T19:29:07.637Z,6.62
2022-12-25T19:31:37.194Z,6.63
2022-12-25T19:34:06.662Z,6.63
2022-12-25T19:36:35.338Z,6.64
2022-12-25T19:39:03.674Z,6.62
2022-12-25T19:41:33.803Z,6.61
2022-12-25T19:44:03.542Z,6.58
2022-12-25T19:46:33.839Z,6.58
2022-12-25T19:49:04.516Z,6.56
2022-12-25T19:51:35.263Z,6.58
2022-12-25T19:54:04.008Z,6.59
2022-12-25T19:56:34.293Z,6.60
2022-12-25T19:59:04.476Z,6.64
2022-12-25T20:01:33.611Z,6.63
2022-12-25T20:04:02.363Z,6.65
2022-12-25T20:06:32.223Z,6.67
2022-12-25T20:09:02.176Z,6.67
2022-12-25T20:11:32.173Z,6.68
2022-12-25T20:14:00.657Z,6.67
2022-12-25T20:16:30.384Z,6.66
2022-12-25T20:18:59.190Z,6.63
2022-12-25T20:21:27.773Z,6.62
2022-12-25T20:23:56.057Z,6.61
2022-12-25T20:26:26.141Z,6.60
2022-12-25T20:28:54.797Z,6.59
2022-12-25T20:31:27.454Z,6.58
2022-12-25T20:33:58.204Z,6.57
2022-12-25T20:36:31.043Z,6.58
2022-12-25T20:39:02.860Z,6.59
2022-12-25T20:41:31.100Z,6.61
2022-12-25T20:43:59.988Z,6.63
2022-12-25T20:46:28.424Z,6.64
2022-12-25T20:48:58.170Z,6.65
2022-12-25T20:51:27.210Z,6.66
2022-12-25T20:53:56.159Z,6.68
2022-12-25T20:56:25.913Z,6.67
2022-12-25T20:58:55.317Z,6.64
2022-12-25T21:01:23.872Z,6.63
2022-12-25T21:03:52.730Z,6.61
2022-12-25T21:06:22.955Z,6.61
2022-12-25T21:08:51.246Z,6.60
2022-12-25T21:11:21.336Z,6.59
2022-12-25T21:13:49.710Z,6.60
2022-12-25T21:16:19.977Z,6.61
2022-12-25T21:18:48.723Z,6.61
2022-12-25T21:21:17.070Z,6.59
2022-12-25T21:23:47.080Z,6.58
2022-12-25T21:26:18.536Z,6.59
2022-12-25T21:28:47.303Z,6.59
2022-12-25T21:31:15.687Z,6.58
2022-12-25T21:33:52.317Z,6.57
2022-12-25T21:36:23.645Z,6.57
2022-12-25T21:38:58.399Z,6.56
2022-12-25T21:41:27.456Z,6.56
2022-12-25T21:43:56.453Z,6.57
2022-12-25T21:46:25.038Z,6.58
2022-12-25T21:48:53.540Z,6.58
2022-12-25T21:51:42.967Z,6.59
2022-12-25T21:54:13.362Z,6.59
2022-12-25T21:56:44.847Z,6.61
2022-12-25T21:59:16.767Z,6.61
2022-12-25T22:01:45.273Z,6.61
2022-12-25T22:04:14.412Z,6.62
2022-12-25T22:06:59.882Z,6.62
2022-12-25T22:09:29.425Z,6.61
2022-12-25T22:12:14.726Z,6.61
2022-12-25T22:14:56.697Z,6.61
2022-12-25T22:17:44.659Z,6.58
2022-12-25T22:20:14.862Z,6.56
2022-12-25T22:22:42.969Z,6.53
2022-12-25T22:25:12.629Z,6.52
2022-12-25T22:27:41.726Z,6.50
2022-12-25T22:30:12.128Z,6.50
2022-12-25T22:32:40.261Z,6.51
2022-12-25T22:35:09.359Z,6.51
2022-12-25T22:37:37.530Z,6.52
2022-12-25T22:40:07.257Z,6.53
2022-12-25T22:42:36.772Z,6.54
2022-12-25T22:45:05.747Z,6.54
2022-12-25T22:47:33.909Z,6.54
2022-12-25T22:50:02.056Z,6.54
2022-12-25T22:52:30.147Z,6.54
2022-12-25T22:54:58.254Z,6.52
2022-12-25T22:57:26.579Z,6.50
2022-12-25T22:59:56.081Z,6.51
2022-12-25T23:02:24.414Z,6.47
2022-12-25T23:04:52.597Z,6.47
2022-12-25T23:07:20.807Z,6.46
2022-12-25T23:09:49.047Z,6.45
2022-12-25T23:12:31.005Z,6.44
2022-12-25T23:15:00.484Z,6.42
2022-12-25T23:17:45.823Z,6.39
2022-12-25T23:20:33.126Z,6.38
2022-12-25T23:23:19.312Z,6.36
2022-12-25T23:26:04.980Z,6.31
2022-12-25T23:28:50.822Z,6.26
2022-12-25T23:31:21.867Z,6.22
2022-12-25T23:33:49.978Z,6.18
2022-12-25T23:36:18.060Z,6.18
2022-12-25T23:38:46.170Z,6.19
2022-12-25T23:41:14.225Z,6.16
2022-12-25T23:43:42.296Z,6.12
2022-12-25T23:46:10.484Z,6.08
2022-12-25T23:48:40.010Z,6.11
2022-12-25T23:51:09.045Z,6.14
2022-12-25T23:53:37.270Z,6.17
2022-12-25T23:56:05.971Z,6.18
2022-12-25T23:58:34.869Z,6.21
